Laurel, New York
Current Conditions -  °F | °C
As of 6:53 AM on Saturday 20 Dec 2014 (Local Time) from KFOK Reporting Station
Overcast Overcast  
Wind Chill: 24°   Ceiling: 2300
Heat Index: 31°   Visibility: 10mi
Dew Point: 21°   Wind: 7mph
Humidity: 67%   Direction: 360°N
Pressure: 30.27"   Gusts: NA
Location:  40.98°N, 72.55°W
Report Text: KFOK 201153Z AUTO 36006KT 10SM OVC023 M01/M06 A3027 RMK AO2 SLP249 T10061061 10000 21006 51021 TSNO
Loading
Personal Weather Stations






























Interactive Weather Map New forecast layout! Learn more

10-Day Weather Forecast

Advertisements
Track Severe Weather on mobile